sensor_id;sensor_type;location;lat;lon;timestamp;P1;durP1;ratioP1;P2;durP2;ratioP2
15055;SDS011;7626;42.674;23.284;2024-01-07T00:00:21;17.47;;;11.50;;
15055;SDS011;7626;42.674;23.284;2024-01-07T00:02:48;17.47;;;11.43;;
15055;SDS011;7626;42.674;23.284;2024-01-07T00:05:16;17.53;;;11.73;;
15055;SDS011;7626;42.674;23.284;2024-01-07T00:07:42;16.10;;;10.73;;
15055;SDS011;7626;42.674;23.284;2024-01-07T00:10:09;16.27;;;10.90;;
15055;SDS011;7626;42.674;23.284;2024-01-07T00:12:36;17.50;;;10.87;;
15055;SDS011;7626;42.674;23.284;2024-01-07T00:15:03;16.17;;;11.13;;
15055;SDS011;7626;42.674;23.284;2024-01-07T00:17:31;25.27;;;17.30;;
15055;SDS011;7626;42.674;23.284;2024-01-07T00:19:58;31.07;;;21.20;;
15055;SDS011;7626;42.674;23.284;2024-01-07T00:22:26;22.17;;;15.53;;
15055;SDS011;7626;42.674;23.284;2024-01-07T00:24:53;19.27;;;12.07;;
15055;SDS011;7626;42.674;23.284;2024-01-07T00:27:20;18.50;;;11.90;;
15055;SDS011;7626;42.674;23.284;2024-01-07T00:29:47;17.33;;;12.27;;
15055;SDS011;7626;42.674;23.284;2024-01-07T00:32:14;16.03;;;11.60;;
15055;SDS011;7626;42.674;23.284;2024-01-07T00:34:41;15.90;;;11.20;;
15055;SDS011;7626;42.674;23.284;2024-01-07T00:37:07;15.90;;;10.90;;
15055;SDS011;7626;42.674;23.284;2024-01-07T00:39:36;14.70;;;10.47;;
15055;SDS011;7626;42.674;23.284;2024-01-07T00:42:03;14.97;;;10.10;;
15055;SDS011;7626;42.674;23.284;2024-01-07T00:44:30;16.87;;;10.77;;
15055;SDS011;7626;42.674;23.284;2024-01-07T00:46:57;13.93;;;9.83;;
15055;SDS011;7626;42.674;23.284;2024-01-07T00:49:24;15.00;;;9.93;;
15055;SDS011;7626;42.674;23.284;2024-01-07T00:51:51;15.40;;;10.70;;
15055;SDS011;7626;42.674;23.284;2024-01-07T00:54:18;12.17;;;9.47;;
15055;SDS011;7626;42.674;23.284;2024-01-07T00:56:45;14.70;;;9.83;;
15055;SDS011;7626;42.674;23.284;2024-01-07T00:59:12;12.60;;;9.60;;
15055;SDS011;7626;42.674;23.284;2024-01-07T01:01:39;14.03;;;10.63;;
15055;SDS011;7626;42.674;23.284;2024-01-07T01:04:06;14.73;;;10.13;;
15055;SDS011;7626;42.674;23.284;2024-01-07T01:06:33;17.17;;;10.57;;
15055;SDS011;7626;42.674;23.284;2024-01-07T01:08:59;13.53;;;10.57;;
15055;SDS011;7626;42.674;23.284;2024-01-07T01:11:26;13.73;;;10.03;;
15055;SDS011;7626;42.674;23.284;2024-01-07T01:13:55;14.27;;;10.27;;
15055;SDS011;7626;42.674;23.284;2024-01-07T01:16:22;15.20;;;10.43;;
15055;SDS011;7626;42.674;23.284;2024-01-07T01:18:49;15.27;;;11.43;;
15055;SDS011;7626;42.674;23.284;2024-01-07T01:21:16;12.43;;;10.10;;
15055;SDS011;7626;42.674;23.284;2024-01-07T01:23:43;13.77;;;10.93;;
15055;SDS011;7626;42.674;23.284;2024-01-07T01:26:10;18.67;;;11.23;;
15055;SDS011;7626;42.674;23.284;2024-01-07T01:28:37;15.90;;;11.50;;
15055;SDS011;7626;42.674;23.284;2024-01-07T01:31:05;15.80;;;10.80;;
15055;SDS011;7626;42.674;23.284;2024-01-07T01:33:32;13.83;;;10.57;;
15055;SDS011;7626;42.674;23.284;2024-01-07T01:35:59;12.90;;;10.40;;
15055;SDS011;7626;42.674;23.284;2024-01-07T01:38:31;17.50;;;10.97;;
15055;SDS011;7626;42.674;23.284;2024-01-07T01:40:58;14.63;;;10.73;;
15055;SDS011;7626;42.674;23.284;2024-01-07T01:43:25;13.33;;;10.30;;
15055;SDS011;7626;42.674;23.284;2024-01-07T01:45:52;15.83;;;10.90;;
15055;SDS011;7626;42.674;23.284;2024-01-07T01:48:20;14.50;;;10.70;;
15055;SDS011;7626;42.674;23.284;2024-01-07T01:50:48;14.93;;;11.50;;
15055;SDS011;7626;42.674;23.284;2024-01-07T01:53:16;16.57;;;11.77;;
15055;SDS011;7626;42.674;23.284;2024-01-07T01:55:43;18.43;;;11.90;;
15055;SDS011;7626;42.674;23.284;2024-01-07T01:58:10;15.37;;;11.73;;
15055;SDS011;7626;42.674;23.284;2024-01-07T02:00:40;16.80;;;11.60;;
15055;SDS011;7626;42.674;23.284;2024-01-07T02:03:07;17.13;;;11.40;;
15055;SDS011;7626;42.674;23.284;2024-01-07T02:05:35;16.77;;;11.30;;
15055;SDS011;7626;42.674;23.284;2024-01-07T02:08:02;17.63;;;11.60;;
15055;SDS011;7626;42.674;23.284;2024-01-07T02:10:32;16.67;;;12.07;;
15055;SDS011;7626;42.674;23.284;2024-01-07T02:13:01;15.30;;;11.47;;
15055;SDS011;7626;42.674;23.284;2024-01-07T02:15:29;17.20;;;11.90;;
15055;SDS011;7626;42.674;23.284;2024-01-07T02:17:56;16.27;;;11.23;;
15055;SDS011;7626;42.674;23.284;2024-01-07T02:20:22;16.70;;;11.23;;
15055;SDS011;7626;42.674;23.284;2024-01-07T02:22:51;16.37;;;11.37;;
15055;SDS011;7626;42.674;23.284;2024-01-07T02:25:20;16.47;;;11.47;;
15055;SDS011;7626;42.674;23.284;2024-01-07T02:27:47;18.77;;;12.63;;
15055;SDS011;7626;42.674;23.284;2024-01-07T02:30:14;17.17;;;12.37;;
15055;SDS011;7626;42.674;23.284;2024-01-07T02:32:41;14.70;;;11.67;;
15055;SDS011;7626;42.674;23.284;2024-01-07T02:35:07;13.80;;;11.07;;
15055;SDS011;7626;42.674;23.284;2024-01-07T02:37:34;16.67;;;10.67;;
15055;SDS011;7626;42.674;23.284;2024-01-07T02:40:01;13.27;;;10.87;;
15055;SDS011;7626;42.674;23.284;2024-01-07T02:42:30;14.47;;;10.67;;
15055;SDS011;7626;42.674;23.284;2024-01-07T02:44:57;15.80;;;10.80;;
15055;SDS011;7626;42.674;23.284;2024-01-07T02:47:24;14.43;;;10.43;;
15055;SDS011;7626;42.674;23.284;2024-01-07T02:49:51;15.33;;;10.97;;
15055;SDS011;7626;42.674;23.284;2024-01-07T02:52:18;15.43;;;10.80;;
15055;SDS011;7626;42.674;23.284;2024-01-07T02:54:45;15.67;;;11.20;;
15055;SDS011;7626;42.674;23.284;2024-01-07T02:57:12;14.27;;;10.77;;
15055;SDS011;7626;42.674;23.284;2024-01-07T02:59:40;15.33;;;10.73;;
15055;SDS011;7626;42.674;23.284;2024-01-07T03:02:07;15.27;;;11.90;;
15055;SDS011;7626;42.674;23.284;2024-01-07T03:04:34;17.33;;;10.40;;
15055;SDS011;7626;42.674;23.284;2024-01-07T03:07:01;16.60;;;11.77;;
15055;SDS011;7626;42.674;23.284;2024-01-07T03:09:28;15.70;;;10.47;;
15055;SDS011;7626;42.674;23.284;2024-01-07T03:11:55;13.90;;;10.27;;
15055;SDS011;7626;42.674;23.284;2024-01-07T03:14:21;12.93;;;10.23;;
15055;SDS011;7626;42.674;23.284;2024-01-07T03:16:50;14.33;;;9.83;;
15055;SDS011;7626;42.674;23.284;2024-01-07T03:19:17;14.03;;;8.63;;
15055;SDS011;7626;42.674;23.284;2024-01-07T03:21:44;12.57;;;8.20;;
15055;SDS011;7626;42.674;23.284;2024-01-07T03:24:10;11.13;;;8.20;;
15055;SDS011;7626;42.674;23.284;2024-01-07T03:26:37;13.13;;;8.40;;
15055;SDS011;7626;42.674;23.284;2024-01-07T03:29:04;11.00;;;8.10;;
15055;SDS011;7626;42.674;23.284;2024-01-07T03:31:31;11.47;;;7.73;;
15055;SDS011;7626;42.674;23.284;2024-01-07T03:34:00;8.70;;;6.87;;
15055;SDS011;7626;42.674;23.284;2024-01-07T03:36:26;6.97;;;6.00;;
15055;SDS011;7626;42.674;23.284;2024-01-07T03:38:53;8.07;;;5.93;;
15055;SDS011;7626;42.674;23.284;2024-01-07T03:41:20;8.90;;;5.50;;
15055;SDS011;7626;42.674;23.284;2024-01-07T03:43:47;8.37;;;5.93;;
15055;SDS011;7626;42.674;23.284;2024-01-07T03:46:15;9.93;;;5.90;;
15055;SDS011;7626;42.674;23.284;2024-01-07T03:48:43;9.30;;;5.33;;
15055;SDS011;7626;42.674;23.284;2024-01-07T03:51:11;8.57;;;5.60;;
15055;SDS011;7626;42.674;23.284;2024-01-07T03:53:38;6.23;;;4.90;;
15055;SDS011;7626;42.674;23.284;2024-01-07T03:56:05;7.47;;;4.93;;
15055;SDS011;7626;42.674;23.284;2024-01-07T03:58:32;7.23;;;4.17;;
15055;SDS011;7626;42.674;23.284;2024-01-07T04:01:00;6.13;;;4.60;;
15055;SDS011;7626;42.674;23.284;2024-01-07T04:03:27;6.13;;;4.57;;
15055;SDS011;7626;42.674;23.284;2024-01-07T04:05:54;7.83;;;4.33;;
15055;SDS011;7626;42.674;23.284;2024-01-07T04:08:22;5.87;;;4.13;;
15055;SDS011;7626;42.674;23.284;2024-01-07T04:10:49;5.97;;;4.57;;
15055;SDS011;7626;42.674;23.284;2024-01-07T04:13:16;6.03;;;4.57;;
15055;SDS011;7626;42.674;23.284;2024-01-07T04:15:43;6.13;;;4.43;;
15055;SDS011;7626;42.674;23.284;2024-01-07T04:18:10;6.13;;;4.50;;
15055;SDS011;7626;42.674;23.284;2024-01-07T04:20:36;5.17;;;4.17;;
15055;SDS011;7626;42.674;23.284;2024-01-07T04:23:03;4.17;;;3.73;;
15055;SDS011;7626;42.674;23.284;2024-01-07T04:25:32;4.70;;;3.33;;
15055;SDS011;7626;42.674;23.284;2024-01-07T04:27:59;3.97;;;3.13;;
15055;SDS011;7626;42.674;23.284;2024-01-07T04:30:26;4.97;;;3.67;;
15055;SDS011;7626;42.674;23.284;2024-01-07T04:32:53;7.10;;;4.17;;
15055;SDS011;7626;42.674;23.284;2024-01-07T04:35:20;6.63;;;4.50;;
15055;SDS011;7626;42.674;23.284;2024-01-07T04:37:47;6.07;;;4.40;;
15055;SDS011;7626;42.674;23.284;2024-01-07T04:40:14;6.63;;;4.73;;
15055;SDS011;7626;42.674;23.284;2024-01-07T04:42:42;7.07;;;4.90;;
15055;SDS011;7626;42.674;23.284;2024-01-07T04:45:09;6.37;;;4.87;;
15055;SDS011;7626;42.674;23.284;2024-01-07T04:47:36;6.10;;;4.73;;
15055;SDS011;7626;42.674;23.284;2024-01-07T04:50:03;5.67;;;4.60;;
15055;SDS011;7626;42.674;23.284;2024-01-07T04:52:30;6.87;;;5.17;;
15055;SDS011;7626;42.674;23.284;2024-01-07T04:54:57;6.07;;;5.17;;
15055;SDS011;7626;42.674;23.284;2024-01-07T04:57:24;7.33;;;5.40;;
15055;SDS011;7626;42.674;23.284;2024-01-07T04:59:52;7.27;;;4.93;;
15055;SDS011;7626;42.674;23.284;2024-01-07T05:02:20;6.87;;;5.13;;
15055;SDS011;7626;42.674;23.284;2024-01-07T05:04:47;6.40;;;4.97;;
15055;SDS011;7626;42.674;23.284;2024-01-07T05:07:14;5.77;;;5.03;;
15055;SDS011;7626;42.674;23.284;2024-01-07T05:09:41;5.97;;;5.37;;
15055;SDS011;7626;42.674;23.284;2024-01-07T05:12:08;7.07;;;4.93;;
15055;SDS011;7626;42.674;23.284;2024-01-07T05:14:35;5.97;;;5.07;;
15055;SDS011;7626;42.674;23.284;2024-01-07T05:17:04;7.70;;;5.07;;
15055;SDS011;7626;42.674;23.284;2024-01-07T05:19:31;5.90;;;4.40;;
15055;SDS011;7626;42.674;23.284;2024-01-07T05:21:58;7.60;;;5.10;;
15055;SDS011;7626;42.674;23.284;2024-01-07T05:24:25;7.57;;;5.10;;
15055;SDS011;7626;42.674;23.284;2024-01-07T05:26:52;7.43;;;4.80;;
15055;SDS011;7626;42.674;23.284;2024-01-07T05:29:19;5.60;;;4.90;;
15055;SDS011;7626;42.674;23.284;2024-01-07T05:31:46;6.77;;;4.93;;
15055;SDS011;7626;42.674;23.284;2024-01-07T05:34:14;6.33;;;4.70;;
15055;SDS011;7626;42.674;23.284;2024-01-07T05:36:41;5.17;;;4.60;;
15055;SDS011;7626;42.674;23.284;2024-01-07T05:39:08;4.93;;;4.50;;
15055;SDS011;7626;42.674;23.284;2024-01-07T05:41:36;7.00;;;5.17;;
15055;SDS011;7626;42.674;23.284;2024-01-07T05:44:05;6.10;;;4.87;;
15055;SDS011;7626;42.674;23.284;2024-01-07T05:46:33;6.70;;;5.43;;
15055;SDS011;7626;42.674;23.284;2024-01-07T05:49:00;7.43;;;5.70;;
15055;SDS011;7626;42.674;23.284;2024-01-07T05:51:28;6.33;;;5.70;;
15055;SDS011;7626;42.674;23.284;2024-01-07T05:53:55;9.40;;;6.13;;
15055;SDS011;7626;42.674;23.284;2024-01-07T05:56:22;10.73;;;6.20;;
15055;SDS011;7626;42.674;23.284;2024-01-07T05:58:49;6.27;;;5.67;;
15055;SDS011;7626;42.674;23.284;2024-01-07T06:01:18;8.30;;;6.10;;
15055;SDS011;7626;42.674;23.284;2024-01-07T06:03:45;7.43;;;5.97;;
15055;SDS011;7626;42.674;23.284;2024-01-07T06:06:13;7.43;;;5.73;;
15055;SDS011;7626;42.674;23.284;2024-01-07T06:08:41;6.50;;;5.60;;
15055;SDS011;7626;42.674;23.284;2024-01-07T06:11:08;7.20;;;5.63;;
15055;SDS011;7626;42.674;23.284;2024-01-07T06:13:36;6.13;;;5.07;;
15055;SDS011;7626;42.674;23.284;2024-01-07T06:16:03;7.07;;;5.53;;
15055;SDS011;7626;42.674;23.284;2024-01-07T06:18:30;6.27;;;5.10;;
15055;SDS011;7626;42.674;23.284;2024-01-07T06:20:57;7.40;;;5.30;;
15055;SDS011;7626;42.674;23.284;2024-01-07T06:23:24;6.23;;;5.33;;
15055;SDS011;7626;42.674;23.284;2024-01-07T06:25:52;7.83;;;5.87;;
15055;SDS011;7626;42.674;23.284;2024-01-07T06:28:19;13.90;;;10.37;;
15055;SDS011;7626;42.674;23.284;2024-01-07T06:30:46;10.93;;;9.23;;
15055;SDS011;7626;42.674;23.284;2024-01-07T06:33:13;9.47;;;6.97;;
15055;SDS011;7626;42.674;23.284;2024-01-07T06:35:40;10.00;;;7.03;;
15055;SDS011;7626;42.674;23.284;2024-01-07T06:38:07;9.53;;;6.87;;
15055;SDS011;7626;42.674;23.284;2024-01-07T06:40:34;8.93;;;6.17;;
15055;SDS011;7626;42.674;23.284;2024-01-07T06:43:02;8.57;;;5.40;;
15055;SDS011;7626;42.674;23.284;2024-01-07T06:45:29;9.27;;;5.97;;
15055;SDS011;7626;42.674;23.284;2024-01-07T06:47:57;8.60;;;5.53;;
15055;SDS011;7626;42.674;23.284;2024-01-07T06:50:24;6.23;;;5.63;;
15055;SDS011;7626;42.674;23.284;2024-01-07T06:52:51;7.10;;;5.63;;
15055;SDS011;7626;42.674;23.284;2024-01-07T06:55:18;7.00;;;6.00;;
15055;SDS011;7626;42.674;23.284;2024-01-07T06:57:45;8.80;;;6.17;;
15055;SDS011;7626;42.674;23.284;2024-01-07T07:00:14;7.97;;;6.03;;
15055;SDS011;7626;42.674;23.284;2024-01-07T07:02:42;7.80;;;5.93;;
15055;SDS011;7626;42.674;23.284;2024-01-07T07:05:09;8.03;;;6.20;;
15055;SDS011;7626;42.674;23.284;2024-01-07T07:07:36;8.97;;;6.27;;
15055;SDS011;7626;42.674;23.284;2024-01-07T07:10:05;9.47;;;6.60;;
15055;SDS011;7626;42.674;23.284;2024-01-07T07:12:32;8.50;;;6.60;;
15055;SDS011;7626;42.674;23.284;2024-01-07T07:14:59;8.67;;;6.43;;
15055;SDS011;7626;42.674;23.284;2024-01-07T07:17:27;9.27;;;6.17;;
15055;SDS011;7626;42.674;23.284;2024-01-07T07:19:54;9.07;;;6.03;;
15055;SDS011;7626;42.674;23.284;2024-01-07T07:22:21;8.87;;;6.77;;
15055;SDS011;7626;42.674;23.284;2024-01-07T07:24:48;7.17;;;5.90;;
15055;SDS011;7626;42.674;23.284;2024-01-07T07:27:15;6.07;;;5.47;;
15055;SDS011;7626;42.674;23.284;2024-01-07T07:29:42;9.07;;;6.77;;
15055;SDS011;7626;42.674;23.284;2024-01-07T07:32:09;19.37;;;13.40;;
15055;SDS011;7626;42.674;23.284;2024-01-07T07:34:37;15.60;;;10.73;;
15055;SDS011;7626;42.674;23.284;2024-01-07T07:37:04;10.27;;;8.03;;
15055;SDS011;7626;42.674;23.284;2024-01-07T07:39:31;9.23;;;7.13;;
15055;SDS011;7626;42.674;23.284;2024-01-07T07:41:58;9.40;;;7.07;;
15055;SDS011;7626;42.674;23.284;2024-01-07T07:44:24;8.07;;;6.80;;
15055;SDS011;7626;42.674;23.284;2024-01-07T07:46:51;9.27;;;7.30;;
15055;SDS011;7626;42.674;23.284;2024-01-07T07:49:18;11.03;;;7.37;;
15055;SDS011;7626;42.674;23.284;2024-01-07T07:51:46;11.00;;;7.67;;
15055;SDS011;7626;42.674;23.284;2024-01-07T07:54:13;9.60;;;7.53;;
15055;SDS011;7626;42.674;23.284;2024-01-07T07:56:40;10.97;;;7.17;;
15055;SDS011;7626;42.674;23.284;2024-01-07T07:59:07;9.13;;;5.07;;
15055;SDS011;7626;42.674;23.284;2024-01-07T08:01:35;9.93;;;7.63;;
15055;SDS011;7626;42.674;23.284;2024-01-07T08:04:02;10.57;;;7.17;;
15055;SDS011;7626;42.674;23.284;2024-01-07T08:06:30;9.57;;;8.00;;
15055;SDS011;7626;42.674;23.284;2024-01-07T08:08:58;10.80;;;7.80;;
15055;SDS011;7626;42.674;23.284;2024-01-07T08:11:25;12.10;;;7.50;;
15055;SDS011;7626;42.674;23.284;2024-01-07T08:13:54;9.37;;;7.50;;
15055;SDS011;7626;42.674;23.284;2024-01-07T08:16:22;8.87;;;6.87;;
15055;SDS011;7626;42.674;23.284;2024-01-07T08:18:49;12.93;;;10.30;;
15055;SDS011;7626;42.674;23.284;2024-01-07T08:21:16;14.13;;;10.00;;
15055;SDS011;7626;42.674;23.284;2024-01-07T08:23:43;10.53;;;7.70;;
15055;SDS011;7626;42.674;23.284;2024-01-07T08:26:11;8.70;;;7.17;;
15055;SDS011;7626;42.674;23.284;2024-01-07T08:28:39;9.20;;;6.83;;
15055;SDS011;7626;42.674;23.284;2024-01-07T08:31:05;7.87;;;6.67;;
15055;SDS011;7626;42.674;23.284;2024-01-07T08:33:33;8.60;;;6.97;;
15055;SDS011;7626;42.674;23.284;2024-01-07T08:36:00;9.97;;;7.57;;
15055;SDS011;7626;42.674;23.284;2024-01-07T08:38:27;11.43;;;7.33;;
15055;SDS011;7626;42.674;23.284;2024-01-07T08:40:53;8.20;;;6.70;;
15055;SDS011;7626;42.674;23.284;2024-01-07T08:43:22;7.90;;;6.50;;
15055;SDS011;7626;42.674;23.284;2024-01-07T08:45:49;6.53;;;5.83;;
15055;SDS011;7626;42.674;23.284;2024-01-07T08:48:16;8.73;;;6.60;;
15055;SDS011;7626;42.674;23.284;2024-01-07T08:50:43;21.83;;;15.63;;
15055;SDS011;7626;42.674;23.284;2024-01-07T08:53:11;17.93;;;13.43;;
15055;SDS011;7626;42.674;23.284;2024-01-07T08:55:39;12.87;;;10.30;;
15055;SDS011;7626;42.674;23.284;2024-01-07T08:58:06;10.60;;;8.83;;
15055;SDS011;7626;42.674;23.284;2024-01-07T09:00:35;10.13;;;7.90;;
15055;SDS011;7626;42.674;23.284;2024-01-07T09:03:02;10.40;;;8.30;;
15055;SDS011;7626;42.674;23.284;2024-01-07T09:05:29;9.93;;;7.10;;
15055;SDS011;7626;42.674;23.284;2024-01-07T09:07:56;8.40;;;6.57;;
15055;SDS011;7626;42.674;23.284;2024-01-07T09:10:23;8.20;;;6.40;;
15055;SDS011;7626;42.674;23.284;2024-01-07T09:12:50;9.03;;;7.80;;
15055;SDS011;7626;42.674;23.284;2024-01-07T09:15:18;9.37;;;7.80;;
15055;SDS011;7626;42.674;23.284;2024-01-07T09:20:32;8.20;;;6.27;;
15055;SDS011;7626;42.674;23.284;2024-01-07T09:23:00;8.13;;;5.87;;
15055;SDS011;7626;42.674;23.284;2024-01-07T09:25:26;7.33;;;6.07;;
15055;SDS011;7626;42.674;23.284;2024-01-07T09:27:54;6.93;;;5.70;;
15055;SDS011;7626;42.674;23.284;2024-01-07T09:30:21;7.17;;;5.77;;
15055;SDS011;7626;42.674;23.284;2024-01-07T09:32:48;6.80;;;6.03;;
15055;SDS011;7626;42.674;23.284;2024-01-07T09:35:16;6.93;;;5.90;;
15055;SDS011;7626;42.674;23.284;2024-01-07T09:37:43;8.03;;;6.17;;
15055;SDS011;7626;42.674;23.284;2024-01-07T09:40:11;6.23;;;5.30;;
15055;SDS011;7626;42.674;23.284;2024-01-07T09:42:39;6.93;;;5.70;;
15055;SDS011;7626;42.674;23.284;2024-01-07T09:45:06;7.07;;;5.77;;
15055;SDS011;7626;42.674;23.284;2024-01-07T09:47:33;8.80;;;6.50;;
15055;SDS011;7626;42.674;23.284;2024-01-07T09:50:01;8.10;;;6.60;;
15055;SDS011;7626;42.674;23.284;2024-01-07T09:52:31;6.93;;;5.80;;
15055;SDS011;7626;42.674;23.284;2024-01-07T09:55:00;8.67;;;6.10;;
15055;SDS011;7626;42.674;23.284;2024-01-07T09:57:30;7.57;;;6.33;;
15055;SDS011;7626;42.674;23.284;2024-01-07T09:59:57;8.63;;;5.77;;
15055;SDS011;7626;42.674;23.284;2024-01-07T10:02:24;7.17;;;6.30;;
15055;SDS011;7626;42.674;23.284;2024-01-07T10:04:51;7.27;;;5.87;;
15055;SDS011;7626;42.674;23.284;2024-01-07T10:07:18;6.67;;;5.97;;
15055;SDS011;7626;42.674;23.284;2024-01-07T10:09:46;7.23;;;5.30;;
15055;SDS011;7626;42.674;23.284;2024-01-07T10:12:13;7.63;;;5.97;;
15055;SDS011;7626;42.674;23.284;2024-01-07T10:14:41;6.30;;;5.43;;
15055;SDS011;7626;42.674;23.284;2024-01-07T10:17:17;6.63;;;5.53;;
15055;SDS011;7626;42.674;23.284;2024-01-07T10:19:44;6.77;;;5.57;;
15055;SDS011;7626;42.674;23.284;2024-01-07T10:22:12;5.83;;;4.70;;
15055;SDS011;7626;42.674;23.284;2024-01-07T10:24:41;8.03;;;4.57;;
15055;SDS011;7626;42.674;23.284;2024-01-07T10:27:10;4.77;;;3.90;;
15055;SDS011;7626;42.674;23.284;2024-01-07T10:29:38;5.90;;;4.50;;
15055;SDS011;7626;42.674;23.284;2024-01-07T10:32:05;5.83;;;4.50;;
15055;SDS011;7626;42.674;23.284;2024-01-07T10:34:33;6.23;;;5.27;;
15055;SDS011;7626;42.674;23.284;2024-01-07T10:37:01;9.50;;;6.23;;
15055;SDS011;7626;42.674;23.284;2024-01-07T10:39:30;9.07;;;6.33;;
15055;SDS011;7626;42.674;23.284;2024-01-07T10:41:57;7.90;;;6.07;;
15055;SDS011;7626;42.674;23.284;2024-01-07T10:44:27;8.70;;;6.80;;
15055;SDS011;7626;42.674;23.284;2024-01-07T10:46:56;8.83;;;6.03;;
15055;SDS011;7626;42.674;23.284;2024-01-07T10:49:25;8.20;;;5.80;;
15055;SDS011;7626;42.674;23.284;2024-01-07T10:51:56;7.67;;;5.90;;
15055;SDS011;7626;42.674;23.284;2024-01-07T10:54:30;7.90;;;6.10;;
15055;SDS011;7626;42.674;23.284;2024-01-07T10:56:59;5.97;;;5.10;;
15055;SDS011;7626;42.674;23.284;2024-01-07T10:59:32;7.53;;;5.33;;
15055;SDS011;7626;42.674;23.284;2024-01-07T11:02:01;7.37;;;5.23;;
15055;SDS011;7626;42.674;23.284;2024-01-07T11:04:30;8.50;;;6.80;;
15055;SDS011;7626;42.674;23.284;2024-01-07T11:07:09;9.33;;;6.97;;
15055;SDS011;7626;42.674;23.284;2024-01-07T11:09:49;8.67;;;6.80;;
15055;SDS011;7626;42.674;23.284;2024-01-07T11:12:26;8.67;;;6.47;;
15055;SDS011;7626;42.674;23.284;2024-01-07T11:14:55;9.07;;;6.17;;
15055;SDS011;7626;42.674;23.284;2024-01-07T11:17:39;8.63;;;6.17;;
15055;SDS011;7626;42.674;23.284;2024-01-07T11:20:12;7.73;;;5.70;;
15055;SDS011;7626;42.674;23.284;2024-01-07T11:22:40;6.87;;;5.17;;
15055;SDS011;7626;42.674;23.284;2024-01-07T11:27:56;8.10;;;5.93;;
15055;SDS011;7626;42.674;23.284;2024-01-07T11:30:25;6.80;;;4.57;;
15055;SDS011;7626;42.674;23.284;2024-01-07T11:32:56;7.70;;;4.27;;
15055;SDS011;7626;42.674;23.284;2024-01-07T11:38:27;4.83;;;4.30;;
15055;SDS011;7626;42.674;23.284;2024-01-07T11:40:55;4.67;;;3.97;;
15055;SDS011;7626;42.674;23.284;2024-01-07T11:43:25;7.27;;;4.37;;
15055;SDS011;7626;42.674;23.284;2024-01-07T11:45:53;7.80;;;4.50;;
15055;SDS011;7626;42.674;23.284;2024-01-07T11:48:21;5.87;;;4.43;;
15055;SDS011;7626;42.674;23.284;2024-01-07T11:50:48;6.43;;;4.70;;
15055;SDS011;7626;42.674;23.284;2024-01-07T11:53:15;6.13;;;5.23;;
15055;SDS011;7626;42.674;23.284;2024-01-07T11:55:42;7.67;;;5.63;;
15055;SDS011;7626;42.674;23.284;2024-01-07T11:58:11;9.27;;;5.53;;
15055;SDS011;7626;42.674;23.284;2024-01-07T12:00:38;8.13;;;5.20;;
15055;SDS011;7626;42.674;23.284;2024-01-07T12:03:07;8.43;;;5.27;;
15055;SDS011;7626;42.674;23.284;2024-01-07T12:05:34;8.53;;;5.30;;
15055;SDS011;7626;42.674;23.284;2024-01-07T12:08:01;6.50;;;4.70;;
15055;SDS011;7626;42.674;23.284;2024-01-07T12:10:28;6.10;;;4.50;;
15055;SDS011;7626;42.674;23.284;2024-01-07T12:12:55;7.47;;;4.77;;
15055;SDS011;7626;42.674;23.284;2024-01-07T12:15:22;6.63;;;4.97;;
15055;SDS011;7626;42.674;23.284;2024-01-07T12:17:56;8.17;;;5.33;;
15055;SDS011;7626;42.674;23.284;2024-01-07T12:20:26;8.77;;;5.30;;
15055;SDS011;7626;42.674;23.284;2024-01-07T12:22:55;8.43;;;4.73;;
15055;SDS011;7626;42.674;23.284;2024-01-07T12:25:24;10.20;;;4.57;;
15055;SDS011;7626;42.674;23.284;2024-01-07T12:27:51;6.40;;;4.40;;
15055;SDS011;7626;42.674;23.284;2024-01-07T12:30:23;6.27;;;4.73;;
15055;SDS011;7626;42.674;23.284;2024-01-07T12:32:51;7.70;;;5.20;;
15055;SDS011;7626;42.674;23.284;2024-01-07T12:35:18;6.43;;;4.60;;
15055;SDS011;7626;42.674;23.284;2024-01-07T12:37:47;5.23;;;4.73;;
15055;SDS011;7626;42.674;23.284;2024-01-07T12:40:14;7.50;;;5.30;;
15055;SDS011;7626;42.674;23.284;2024-01-07T12:42:41;7.63;;;4.43;;
15055;SDS011;7626;42.674;23.284;2024-01-07T12:45:11;5.53;;;4.70;;
15055;SDS011;7626;42.674;23.284;2024-01-07T12:47:40;6.77;;;5.00;;
15055;SDS011;7626;42.674;23.284;2024-01-07T12:50:08;6.77;;;4.63;;
15055;SDS011;7626;42.674;23.284;2024-01-07T12:52:36;5.53;;;4.67;;
15055;SDS011;7626;42.674;23.284;2024-01-07T12:55:06;6.53;;;4.50;;
15055;SDS011;7626;42.674;23.284;2024-01-07T12:57:33;5.33;;;4.20;;
15055;SDS011;7626;42.674;23.284;2024-01-07T13:00:01;5.97;;;5.07;;
15055;SDS011;7626;42.674;23.284;2024-01-07T13:02:31;6.90;;;5.10;;
15055;SDS011;7626;42.674;23.284;2024-01-07T13:04:58;7.40;;;4.93;;
15055;SDS011;7626;42.674;23.284;2024-01-07T13:07:25;6.60;;;4.90;;
15055;SDS011;7626;42.674;23.284;2024-01-07T13:09:52;6.43;;;4.57;;
15055;SDS011;7626;42.674;23.284;2024-01-07T13:12:20;6.77;;;4.63;;
15055;SDS011;7626;42.674;23.284;2024-01-07T13:14:46;6.87;;;4.50;;
15055;SDS011;7626;42.674;23.284;2024-01-07T13:17:13;7.40;;;4.20;;
15055;SDS011;7626;42.674;23.284;2024-01-07T13:19:41;5.70;;;4.53;;
15055;SDS011;7626;42.674;23.284;2024-01-07T13:22:08;8.77;;;4.60;;
15055;SDS011;7626;42.674;23.284;2024-01-07T13:24:36;5.47;;;4.33;;
15055;SDS011;7626;42.674;23.284;2024-01-07T13:27:03;5.23;;;4.53;;
15055;SDS011;7626;42.674;23.284;2024-01-07T13:29:31;5.77;;;4.20;;
15055;SDS011;7626;42.674;23.284;2024-01-07T13:31:59;5.80;;;4.50;;
15055;SDS011;7626;42.674;23.284;2024-01-07T13:34:26;5.10;;;4.20;;
15055;SDS011;7626;42.674;23.284;2024-01-07T13:36:53;9.50;;;4.97;;
15055;SDS011;7626;42.674;23.284;2024-01-07T13:39:21;5.33;;;4.60;;
15055;SDS011;7626;42.674;23.284;2024-01-07T13:41:47;6.13;;;4.73;;
15055;SDS011;7626;42.674;23.284;2024-01-07T13:44:15;5.70;;;4.77;;
15055;SDS011;7626;42.674;23.284;2024-01-07T13:46:45;6.93;;;5.27;;
15055;SDS011;7626;42.674;23.284;2024-01-07T13:49:13;6.97;;;4.93;;
15055;SDS011;7626;42.674;23.284;2024-01-07T13:51:40;7.30;;;4.87;;
15055;SDS011;7626;42.674;23.284;2024-01-07T13:54:07;5.63;;;4.80;;
15055;SDS011;7626;42.674;23.284;2024-01-07T13:56:36;6.40;;;4.60;;
15055;SDS011;7626;42.674;23.284;2024-01-07T13:59:06;6.00;;;4.70;;
15055;SDS011;7626;42.674;23.284;2024-01-07T14:01:33;6.23;;;4.97;;
15055;SDS011;7626;42.674;23.284;2024-01-07T14:04:02;7.43;;;4.87;;
15055;SDS011;7626;42.674;23.284;2024-01-07T14:06:29;5.77;;;4.60;;
15055;SDS011;7626;42.674;23.284;2024-01-07T14:08:55;6.00;;;4.87;;
15055;SDS011;7626;42.674;23.284;2024-01-07T14:11:22;6.50;;;4.47;;
15055;SDS011;7626;42.674;23.284;2024-01-07T14:13:49;7.03;;;4.80;;
15055;SDS011;7626;42.674;23.284;2024-01-07T14:16:17;7.57;;;4.40;;
15055;SDS011;7626;42.674;23.284;2024-01-07T14:18:43;7.50;;;4.00;;
15055;SDS011;7626;42.674;23.284;2024-01-07T14:21:12;4.90;;;4.37;;
15055;SDS011;7626;42.674;23.284;2024-01-07T14:23:39;7.53;;;4.63;;
15055;SDS011;7626;42.674;23.284;2024-01-07T14:26:06;6.17;;;4.63;;
15055;SDS011;7626;42.674;23.284;2024-01-07T14:28:32;8.87;;;5.70;;
15055;SDS011;7626;42.674;23.284;2024-01-07T14:31:00;9.03;;;7.20;;
15055;SDS011;7626;42.674;23.284;2024-01-07T14:33:28;7.27;;;6.57;;
15055;SDS011;7626;42.674;23.284;2024-01-07T14:35:55;9.43;;;6.03;;
15055;SDS011;7626;42.674;23.284;2024-01-07T14:38:24;6.47;;;5.73;;
15055;SDS011;7626;42.674;23.284;2024-01-07T14:40:52;8.37;;;6.40;;
15055;SDS011;7626;42.674;23.284;2024-01-07T14:43:19;9.87;;;7.50;;
15055;SDS011;7626;42.674;23.284;2024-01-07T14:45:46;11.20;;;6.93;;
15055;SDS011;7626;42.674;23.284;2024-01-07T14:48:12;9.57;;;7.50;;
15055;SDS011;7626;42.674;23.284;2024-01-07T14:50:40;13.33;;;8.03;;